createdAt,value
2022-09-28T00:01:18.291Z,4.33
2022-09-28T00:03:45.962Z,4.63
2022-09-28T00:06:14.263Z,4.57
2022-09-28T00:08:40.835Z,4.63
2022-09-28T00:11:08.529Z,5.03
2022-09-28T00:13:35.190Z,3.93
2022-09-28T00:16:11.342Z,4.37
2022-09-28T00:18:37.929Z,4.60
2022-09-28T00:21:10.067Z,4.20
2022-09-28T00:23:59.782Z,4.70
2022-09-28T00:26:31.608Z,5.00
2022-09-28T00:29:00.626Z,4.77
2022-09-28T00:31:32.745Z,4.80
2022-09-28T00:34:00.391Z,4.97
2022-09-28T00:36:28.230Z,5.37
2022-09-28T00:38:58.067Z,5.40
2022-09-28T00:41:25.574Z,6.07
2022-09-28T00:43:52.933Z,5.40
2022-09-28T00:46:37.607Z,5.20
2022-09-28T00:49:11.082Z,5.70
2022-09-28T00:51:38.828Z,5.47
2022-09-28T00:54:06.933Z,5.43
2022-09-28T00:56:36.169Z,5.40
2022-09-28T00:59:04.685Z,6.17
2022-09-28T01:01:31.170Z,6.37
2022-09-28T01:04:02.687Z,6.57
2022-09-28T01:06:33.184Z,6.30
2022-09-28T01:09:03.085Z,5.73
2022-09-28T01:11:33.839Z,6.00
2022-09-28T01:14:00.960Z,5.37
2022-09-28T01:16:38.108Z,5.63
2022-09-28T01:19:23.009Z,6.20
2022-09-28T01:21:53.021Z,6.50
2022-09-28T01:24:41.368Z,5.53
2022-09-28T01:27:29.908Z,5.80
2022-09-28T01:30:05.242Z,5.83
2022-09-28T01:33:20.422Z,5.90
2022-09-28T01:35:58.276Z,6.53
2022-09-28T01:38:52.700Z,6.27
2022-09-28T01:41:20.053Z,5.60
2022-09-28T01:43:49.917Z,5.87
2022-09-28T01:46:22.018Z,5.90
2022-09-28T01:48:59.027Z,6.57
2022-09-28T01:51:32.250Z,6.00
2022-09-28T01:54:02.268Z,6.90
2022-09-28T01:56:34.375Z,6.53
2022-09-28T01:59:25.064Z,5.80
2022-09-28T02:02:03.815Z,5.60
2022-09-28T02:04:35.461Z,6.17
2022-09-28T02:07:07.126Z,6.10
2022-09-28T02:09:42.831Z,6.70
2022-09-28T02:12:35.545Z,6.00
2022-09-28T02:15:24.946Z,5.37
2022-09-28T02:17:51.793Z,6.57
2022-09-28T02:20:18.523Z,6.70
2022-09-28T02:22:50.102Z,6.50
2022-09-28T02:25:24.381Z,6.53
2022-09-28T02:28:04.745Z,6.03
2022-09-28T02:30:32.855Z,6.33
2022-09-28T02:33:03.891Z,7.07
2022-09-28T02:35:30.427Z,7.57
2022-09-28T02:37:56.868Z,8.77
2022-09-28T02:40:30.148Z,8.90
2022-09-28T02:43:14.215Z,8.27
2022-09-28T02:46:02.108Z,7.50
2022-09-28T02:49:17.341Z,8.23
2022-09-28T02:52:24.949Z,8.03
2022-09-28T02:55:09.597Z,8.70
2022-09-28T02:57:52.026Z,8.37
2022-09-28T03:00:20.398Z,9.17
2022-09-28T03:03:09.253Z,9.13
2022-09-28T03:06:03.876Z,10.03
2022-09-28T03:08:36.074Z,10.10
2022-09-28T03:11:05.562Z,9.60
2022-09-28T03:13:32.516Z,9.60
2022-09-28T03:16:16.693Z,8.97
2022-09-28T03:18:43.401Z,9.63
2022-09-28T03:21:12.384Z,10.00
2022-09-28T03:23:39.419Z,10.37
2022-09-28T03:26:07.979Z,10.03
2022-09-28T03:28:36.144Z,10.97
2022-09-28T03:31:02.699Z,9.73
2022-09-28T03:33:29.751Z,10.80
2022-09-28T03:35:56.188Z,11.60
2022-09-28T03:38:22.589Z,10.13
2022-09-28T03:40:56.637Z,11.10
2022-09-28T03:43:23.394Z,10.27
2022-09-28T03:45:54.824Z,10.40
2022-09-28T03:48:29.894Z,10.93
2022-09-28T03:51:00.812Z,11.30
2022-09-28T03:53:29.557Z,9.93
2022-09-28T03:55:56.810Z,10.93
2022-09-28T03:58:23.664Z,10.93
2022-09-28T04:00:50.329Z,10.67
2022-09-28T04:03:16.797Z,11.33
2022-09-28T04:05:50.921Z,11.40
2022-09-28T04:08:17.435Z,11.60
2022-09-28T04:10:43.819Z,12.30
2022-09-28T04:13:10.516Z,11.80
2022-09-28T04:15:38.438Z,11.13
2022-09-28T04:18:11.978Z,10.80
2022-09-28T04:20:41.020Z,11.63
2022-09-28T04:23:07.510Z,11.33
2022-09-28T04:25:33.908Z,11.10
2022-09-28T04:28:19.084Z,12.50
2022-09-28T04:30:47.273Z,12.23
2022-09-28T04:33:13.909Z,12.17
2022-09-28T04:35:40.303Z,12.27
2022-09-28T04:38:06.677Z,11.20
2022-09-28T04:40:33.134Z,10.70
2022-09-28T04:42:59.582Z,10.13
2022-09-28T04:45:26.855Z,10.03
2022-09-28T04:47:53.310Z,9.87
2022-09-28T04:50:19.692Z,10.80
2022-09-28T04:52:46.159Z,10.63
2022-09-28T04:55:13.573Z,10.30
2022-09-28T04:57:40.510Z,10.47
2022-09-28T05:00:08.497Z,10.10
2022-09-28T05:02:35.033Z,9.47
2022-09-28T05:05:01.574Z,7.60
2022-09-28T05:07:28.036Z,7.80
2022-09-28T05:09:55.274Z,7.70
2022-09-28T05:12:21.958Z,7.73
2022-09-28T05:14:48.391Z,8.23
2022-09-28T05:17:14.771Z,7.80
2022-09-28T05:19:41.160Z,8.50
2022-09-28T05:22:11.331Z,8.73
2022-09-28T05:24:38.688Z,8.13
2022-09-28T05:27:05.173Z,8.43
2022-09-28T05:29:32.613Z,9.13
2022-09-28T05:32:01.543Z,8.60
2022-09-28T05:34:28.161Z,9.67
2022-09-28T05:36:54.557Z,8.47
2022-09-28T05:39:21.027Z,9.00
2022-09-28T05:41:47.449Z,8.70
2022-09-28T05:44:13.936Z,8.50
2022-09-28T05:46:40.485Z,8.23
2022-09-28T05:49:06.878Z,5.17
2022-09-28T05:51:33.263Z,5.07
2022-09-28T05:54:04.683Z,4.27
2022-09-28T05:56:32.255Z,4.63
2022-09-28T05:58:58.993Z,4.70
2022-09-28T06:01:26.751Z,5.73
2022-09-28T06:03:53.163Z,5.33
2022-09-28T06:06:19.616Z,4.73
2022-09-28T06:08:48.317Z,4.40
2022-09-28T06:11:14.703Z,4.60
2022-09-28T06:13:41.101Z,4.67
2022-09-28T06:16:08.251Z,4.67
2022-09-28T06:18:34.832Z,4.97
2022-09-28T06:21:02.524Z,4.20
2022-09-28T06:23:29.007Z,4.60
2022-09-28T06:25:55.428Z,4.60
2022-09-28T06:28:21.838Z,4.53
2022-09-28T06:30:48.410Z,5.00
2022-09-28T06:33:15.437Z,5.00
2022-09-28T06:35:42.389Z,4.50
2022-09-28T06:38:08.938Z,5.10
2022-09-28T06:40:35.803Z,5.33
2022-09-28T06:43:20.931Z,4.77
2022-09-28T06:45:52.309Z,4.83
2022-09-28T06:48:19.108Z,5.10
2022-09-28T06:50:46.239Z,4.57
2022-09-28T06:53:13.811Z,4.23
2022-09-28T06:55:46.102Z,4.30
2022-09-28T06:58:14.843Z,3.93
2022-09-28T07:00:41.923Z,4.37
2022-09-28T07:03:12.407Z,4.53
2022-09-28T07:05:42.448Z,4.70
2022-09-28T07:08:08.883Z,4.83
2022-09-28T07:10:35.418Z,4.17
2022-09-28T07:13:04.108Z,4.77
2022-09-28T07:15:31.248Z,4.60
2022-09-28T07:18:03.901Z,4.13
2022-09-28T07:20:31.949Z,4.70
2022-09-28T07:23:11.599Z,4.67
2022-09-28T07:25:47.759Z,4.17
2022-09-28T07:28:15.074Z,4.50
2022-09-28T07:30:42.248Z,3.70
2022-09-28T07:33:12.499Z,3.80
2022-09-28T07:35:39.212Z,3.93
2022-09-28T07:38:06.991Z,4.13
2022-09-28T07:40:53.717Z,3.40
2022-09-28T07:43:20.930Z,2.60
2022-09-28T07:45:48.740Z,2.20
2022-09-28T07:48:18.739Z,1.83
2022-09-28T07:50:52.865Z,3.00
2022-09-28T07:53:20.255Z,1.80
2022-09-28T07:55:54.090Z,1.83
2022-09-28T07:58:20.655Z,2.20
2022-09-28T08:00:48.518Z,1.70
2022-09-28T08:03:18.800Z,1.50
2022-09-28T08:05:45.925Z,1.90
2022-09-28T08:08:13.276Z,1.50
2022-09-28T08:10:46.560Z,1.40
2022-09-28T08:13:15.170Z,1.40
2022-09-28T08:15:42.551Z,1.60
2022-09-28T08:18:09.276Z,1.40
2022-09-28T08:20:54.304Z,2.27
2022-09-28T08:23:20.846Z,2.73
2022-09-28T08:25:49.112Z,1.97
2022-09-28T08:28:17.913Z,1.67
2022-09-28T08:30:45.666Z,1.50
2022-09-28T08:33:17.851Z,1.50
2022-09-28T08:35:45.923Z,2.17
2022-09-28T08:38:13.298Z,2.10
2022-09-28T08:40:47.350Z,1.80
2022-09-28T08:43:40.355Z,1.80
2022-09-28T08:46:07.295Z,2.13
2022-09-28T08:48:56.368Z,2.40
2022-09-28T08:51:55.415Z,2.20
2022-09-28T08:54:36.093Z,2.27
2022-09-28T08:57:11.455Z,3.70
2022-09-28T08:59:50.816Z,3.77
2022-09-28T09:02:22.347Z,2.77
2022-09-28T09:04:49.754Z,2.70
2022-09-28T09:07:39.932Z,3.00
2022-09-28T09:10:36.916Z,4.43
2022-09-28T09:13:48.259Z,3.33
2022-09-28T09:16:39.487Z,2.83
2022-09-28T09:19:35.517Z,3.67
2022-09-28T09:22:38.990Z,4.00
2022-09-28T09:25:18.112Z,3.63
2022-09-28T09:28:06.794Z,4.27
2022-09-28T09:31:05.324Z,4.87
2022-09-28T09:33:59.395Z,4.73
2022-09-28T09:36:47.322Z,5.97
2022-09-28T09:39:40.041Z,6.33
2022-09-28T09:42:24.337Z,6.50
2022-09-28T09:45:02.978Z,6.03
2022-09-28T09:47:38.192Z,5.87
2022-09-28T09:50:12.219Z,8.33
2022-09-28T09:52:55.194Z,8.80
2022-09-28T09:55:34.247Z,8.60
2022-09-28T09:58:10.346Z,9.07
2022-09-28T10:00:45.476Z,9.40
2022-09-28T10:03:25.496Z,9.13
2022-09-28T10:05:58.216Z,10.00
2022-09-28T10:08:25.573Z,8.80
2022-09-28T10:10:55.332Z,8.27
2022-09-28T10:13:22.106Z,9.73
2022-09-28T10:15:50.463Z,9.87
2022-09-28T10:18:19.326Z,9.70
2022-09-28T10:20:45.848Z,9.63
2022-09-28T10:23:38.767Z,8.53
2022-09-28T10:26:29.831Z,8.77
2022-09-28T10:29:03.423Z,9.43
2022-09-28T10:31:48.370Z,9.50
2022-09-28T10:34:17.280Z,10.67
2022-09-28T10:37:08.496Z,12.10
2022-09-28T10:39:50.468Z,13.33
2022-09-28T10:42:31.616Z,13.30
2022-09-28T10:45:05.270Z,12.20
2022-09-28T10:47:32.929Z,11.83
2022-09-28T10:50:04.546Z,11.00
2022-09-28T10:52:39.565Z,11.03
2022-09-28T10:55:26.640Z,11.17
2022-09-28T10:57:56.853Z,11.60
2022-09-28T11:00:38.190Z,11.80
2022-09-28T11:03:04.882Z,10.93
2022-09-28T11:05:32.319Z,11.40
2022-09-28T11:08:00.828Z,10.80
2022-09-28T11:10:29.195Z,10.47
2022-09-28T11:12:56.033Z,10.57
2022-09-28T11:15:27.005Z,11.97
2022-09-28T11:17:53.418Z,10.77
2022-09-28T11:20:28.182Z,10.97
2022-09-28T11:23:02.620Z,10.20
2022-09-28T11:25:32.296Z,10.50
2022-09-28T11:28:04.850Z,11.50
2022-09-28T11:30:52.899Z,10.97
2022-09-28T11:33:32.082Z,10.93
2022-09-28T11:36:14.516Z,12.17
2022-09-28T11:38:48.461Z,12.43
2022-09-28T11:41:23.807Z,11.63
2022-09-28T11:44:33.345Z,11.67
2022-09-28T11:47:16.797Z,10.90
2022-09-28T11:50:04.967Z,11.60
2022-09-28T11:52:40.206Z,10.33
2022-09-28T11:55:15.203Z,10.67
2022-09-28T11:57:45.484Z,10.40
2022-09-28T12:00:22.434Z,11.37
2022-09-28T12:02:58.609Z,9.93
2022-09-28T12:05:28.337Z,9.00
2022-09-28T12:08:03.442Z,8.00
2022-09-28T12:10:45.641Z,8.13
2022-09-28T12:13:18.706Z,8.37
2022-09-28T12:16:32.662Z,8.50
2022-09-28T12:18:50.834Z,8.30
2022-09-28T12:21:34.585Z,7.70
2022-09-28T12:24:21.382Z,7.60
2022-09-28T12:27:00.032Z,8.60
2022-09-28T12:29:29.744Z,8.73
2022-09-28T12:32:14.852Z,8.27
2022-09-28T12:34:42.870Z,9.23
2022-09-28T12:37:47.007Z,8.80
2022-09-28T12:40:33.498Z,9.37
2022-09-28T12:43:43.311Z,8.23
2022-09-28T12:46:36.278Z,7.87
2022-09-28T12:50:20.070Z,7.80
2022-09-28T12:52:48.495Z,7.70
2022-09-28T12:55:20.316Z,7.37
2022-09-28T12:57:58.575Z,6.97
2022-09-28T13:00:54.263Z,7.17
2022-09-28T13:03:45.648Z,7.40
2022-09-28T13:06:35.002Z,7.40
2022-09-28T13:09:17.118Z,6.80
2022-09-28T13:12:17.058Z,7.13
2022-09-28T13:15:14.558Z,6.73
2022-09-28T13:18:02.789Z,6.33
2022-09-28T13:20:49.389Z,6.43
2022-09-28T13:23:21.748Z,7.13
2022-09-28T13:26:12.512Z,7.23
2022-09-28T13:28:41.505Z,6.93
2022-09-28T13:31:10.435Z,6.47
2022-09-28T13:33:39.898Z,6.77
2022-09-28T13:36:25.078Z,6.87
2022-09-28T13:38:54.123Z,6.20
2022-09-28T13:41:29.003Z,6.63
2022-09-28T13:44:13.092Z,6.20
2022-09-28T13:46:51.788Z,6.13
2022-09-28T13:49:24.511Z,5.90
2022-09-28T13:52:02.762Z,6.27
2022-09-28T13:54:54.216Z,5.73
2022-09-28T13:57:31.002Z,5.27
2022-09-28T14:00:28.274Z,5.10
2022-09-28T14:03:26.030Z,4.37
2022-09-28T14:06:04.910Z,4.10
2022-09-28T14:08:38.394Z,4.17
2022-09-28T14:11:36.286Z,4.30
2022-09-28T14:14:08.736Z,4.17
2022-09-28T14:16:35.864Z,4.30
2022-09-28T14:19:13.201Z,4.37
2022-09-28T14:21:50.541Z,4.83
2022-09-28T14:24:52.089Z,4.90
2022-09-28T14:27:37.196Z,4.53
2022-09-28T14:30:13.829Z,4.50
2022-09-28T14:32:43.098Z,4.23
2022-09-28T14:35:27.417Z,4.07
2022-09-28T14:38:17.458Z,3.90
2022-09-28T14:41:09.332Z,3.87
2022-09-28T14:43:44.840Z,3.40
2022-09-28T14:46:17.346Z,4.20
2022-09-28T14:48:52.660Z,4.07
2022-09-28T14:51:42.287Z,4.80
2022-09-28T14:54:11.296Z,4.57
2022-09-28T14:57:06.093Z,4.00
2022-09-28T14:59:38.617Z,4.03
2022-09-28T15:02:07.967Z,3.50
2022-09-28T15:04:39.243Z,3.80
2022-09-28T15:07:06.008Z,3.90
2022-09-28T15:09:34.506Z,4.07
2022-09-28T15:12:14.125Z,3.27
2022-09-28T15:14:57.818Z,3.30
2022-09-28T15:17:30.282Z,3.07
2022-09-28T15:20:07.151Z,3.23
2022-09-28T15:22:35.992Z,3.53
2022-09-28T15:25:04.738Z,3.20
2022-09-28T15:27:35.912Z,3.60
2022-09-28T15:30:18.911Z,3.27
2022-09-28T15:32:45.271Z,3.23
2022-09-28T15:35:22.125Z,3.17
2022-09-28T15:37:52.061Z,3.90
2022-09-28T15:40:34.043Z,3.77
2022-09-28T15:43:00.635Z,4.03
2022-09-28T15:45:30.752Z,3.73
2022-09-28T15:48:20.684Z,4.67
2022-09-28T15:51:16.459Z,3.37
2022-09-28T15:53:47.998Z,3.60
2022-09-28T15:56:14.436Z,3.83
2022-09-28T15:58:41.006Z,4.57
2022-09-28T16:01:28.474Z,3.57
2022-09-28T16:03:55.079Z,4.10
2022-09-28T16:06:21.557Z,3.83
2022-09-28T16:08:50.838Z,3.70
2022-09-28T16:11:26.411Z,3.67
2022-09-28T16:14:06.169Z,3.70
2022-09-28T16:16:48.205Z,3.43
2022-09-28T16:19:25.963Z,3.57
2022-09-28T16:22:00.085Z,3.53
2022-09-28T16:24:35.005Z,3.60
2022-09-28T16:27:07.374Z,3.40
2022-09-28T16:29:41.930Z,3.50
2022-09-28T16:32:24.543Z,3.30
2022-09-28T16:35:15.040Z,3.67
2022-09-28T16:37:42.754Z,3.70
2022-09-28T16:40:10.415Z,4.17
2022-09-28T16:42:38.024Z,3.73
2022-09-28T16:45:05.357Z,4.67
2022-09-28T16:47:36.033Z,4.10
2022-09-28T16:50:10.736Z,4.27
2022-09-28T16:53:00.464Z,4.33
2022-09-28T16:55:43.133Z,5.03
2022-09-28T16:58:09.721Z,5.57
2022-09-28T17:00:36.190Z,5.37
2022-09-28T17:03:05.530Z,6.73
2022-09-28T17:05:31.958Z,5.50
2022-09-28T17:08:03.524Z,4.73
2022-09-28T17:10:56.196Z,5.57
2022-09-28T17:13:31.480Z,5.30
2022-09-28T17:15:59.005Z,5.97
2022-09-28T17:18:25.653Z,6.97
2022-09-28T17:20:55.020Z,6.73
2022-09-28T17:23:21.660Z,7.73
2022-09-28T17:25:48.215Z,7.60
2022-09-28T17:28:20.868Z,7.30
2022-09-28T17:30:47.741Z,6.90
2022-09-28T17:33:14.527Z,8.60
2022-09-28T17:35:42.009Z,9.87
2022-09-28T17:38:17.556Z,9.27
2022-09-28T17:40:44.836Z,10.73
2022-09-28T17:43:11.570Z,9.23
2022-09-28T17:45:41.397Z,9.53
2022-09-28T17:48:12.969Z,8.47
2022-09-28T17:50:46.169Z,9.70
2022-09-28T17:53:13.014Z,9.63
2022-09-28T17:55:39.844Z,10.17
2022-09-28T17:58:16.899Z,11.20
2022-09-28T18:00:44.198Z,10.50
2022-09-28T18:03:16.629Z,11.17
2022-09-28T18:05:43.622Z,11.50
2022-09-28T18:08:13.883Z,11.93
2022-09-28T18:10:40.387Z,11.40
2022-09-28T18:13:06.878Z,11.87
2022-09-28T18:15:33.405Z,12.03
2022-09-28T18:17:59.933Z,11.70
2022-09-28T18:20:26.622Z,12.30
2022-09-28T18:22:53.084Z,12.00
2022-09-28T18:25:19.558Z,11.60
2022-09-28T18:27:45.947Z,11.63
2022-09-28T18:30:12.436Z,12.47
2022-09-28T18:32:38.930Z,13.13
2022-09-28T18:35:07.245Z,12.93
2022-09-28T18:37:40.315Z,12.93
2022-09-28T18:40:08.835Z,12.73
2022-09-28T18:42:35.589Z,12.90
2022-09-28T18:45:03.624Z,13.60
2022-09-28T18:47:30.025Z,13.43
2022-09-28T18:49:57.900Z,14.53
2022-09-28T18:52:25.351Z,14.60
2022-09-28T18:54:52.032Z,14.33
2022-09-28T18:57:19.143Z,15.00
2022-09-28T18:59:45.682Z,14.63
2022-09-28T19:02:12.387Z,14.77
2022-09-28T19:04:39.515Z,14.87
2022-09-28T19:07:06.990Z,14.37
2022-09-28T19:09:34.071Z,15.27
2022-09-28T19:12:00.749Z,15.80
2022-09-28T19:14:28.197Z,15.03
2022-09-28T19:16:54.669Z,15.13
2022-09-28T19:19:21.226Z,15.13
2022-09-28T19:21:47.764Z,15.83
2022-09-28T19:24:16.820Z,15.97
2022-09-28T19:26:43.935Z,14.33
2022-09-28T19:29:10.941Z,14.60
2022-09-28T19:31:37.369Z,14.40
2022-09-28T19:34:03.885Z,15.17
2022-09-28T19:36:30.492Z,15.43
2022-09-28T19:38:58.258Z,16.27
2022-09-28T19:41:44.372Z,14.90
2022-09-28T19:44:15.567Z,15.77
2022-09-28T19:46:42.843Z,15.37
2022-09-28T19:49:22.576Z,15.47
2022-09-28T19:54:38.051Z,14.00
2022-09-28T19:57:08.475Z,15.93
2022-09-28T19:59:36.655Z,15.17
2022-09-28T20:02:04.297Z,14.10
2022-09-28T20:04:30.795Z,15.33
2022-09-28T20:06:57.390Z,15.27
2022-09-28T20:09:23.787Z,13.67
2022-09-28T20:11:51.969Z,16.20
2022-09-28T20:14:23.415Z,14.43
2022-09-28T20:16:52.312Z,14.33
2022-09-28T20:19:21.416Z,14.90
2022-09-28T20:21:49.566Z,14.53
2022-09-28T20:24:17.101Z,13.10
2022-09-28T20:26:44.368Z,15.73
2022-09-28T20:29:10.882Z,15.53
2022-09-28T20:31:37.406Z,15.23
2022-09-28T20:34:05.218Z,15.07
2022-09-28T20:36:32.065Z,15.37
2022-09-28T20:39:01.747Z,14.63
2022-09-28T20:41:29.598Z,15.20
2022-09-28T20:43:58.854Z,15.27
2022-09-28T20:46:28.063Z,14.30
2022-09-28T20:48:55.761Z,13.93
2022-09-28T20:51:22.673Z,13.37
2022-09-28T20:53:51.329Z,13.97
2022-09-28T20:56:20.252Z,14.83
2022-09-28T20:58:47.374Z,14.47
2022-09-28T21:01:18.877Z,14.57
2022-09-28T21:03:50.669Z,15.37
2022-09-28T21:06:18.477Z,14.50
2022-09-28T21:08:45.858Z,12.90
2022-09-28T21:11:13.580Z,13.97
2022-09-28T21:13:42.755Z,14.10
2022-09-28T21:16:11.539Z,13.77
2022-09-28T21:18:38.958Z,13.80
2022-09-28T21:21:12.884Z,13.53
2022-09-28T21:23:39.617Z,13.43
2022-09-28T21:26:08.026Z,13.70
2022-09-28T21:28:35.298Z,12.73
2022-09-28T21:31:03.122Z,13.50
2022-09-28T21:33:29.830Z,15.43
2022-09-28T21:36:00.741Z,12.40
2022-09-28T21:38:27.158Z,13.27
2022-09-28T21:41:00.266Z,13.47
2022-09-28T21:43:28.362Z,12.83
2022-09-28T21:45:55.582Z,12.07
2022-09-28T21:48:25.926Z,13.00
2022-09-28T21:50:58.495Z,12.23
2022-09-28T21:53:26.515Z,12.50
2022-09-28T21:55:53.768Z,13.13
2022-09-28T21:58:24.215Z,12.30
2022-09-28T22:01:01.301Z,13.00
2022-09-28T22:03:28.627Z,12.73
2022-09-28T22:05:55.163Z,13.70
2022-09-28T22:08:21.941Z,12.63
2022-09-28T22:11:01.966Z,13.03
2022-09-28T22:13:33.963Z,13.07
2022-09-28T22:16:00.758Z,12.30
2022-09-28T22:18:28.255Z,11.67
2022-09-28T22:21:25.160Z,13.60
2022-09-28T22:23:51.559Z,12.90
2022-09-28T22:26:21.539Z,14.17
2022-09-28T22:28:52.447Z,12.53
2022-09-28T22:31:21.277Z,13.40
2022-09-28T22:33:47.769Z,12.60
2022-09-28T22:36:16.579Z,14.37
2022-09-28T22:38:44.094Z,12.77
2022-09-28T22:41:10.923Z,13.37
2022-09-28T22:43:37.893Z,12.60
2022-09-28T22:46:22.236Z,13.07
2022-09-28T22:48:50.576Z,13.40
2022-09-28T22:51:17.480Z,13.03
2022-09-28T22:53:44.287Z,11.63
2022-09-28T22:56:14.740Z,12.47
2022-09-28T22:58:44.707Z,13.30
2022-09-28T23:01:13.604Z,12.97
2022-09-28T23:03:40.348Z,12.57
2022-09-28T23:06:07.330Z,13.27
2022-09-28T23:08:34.501Z,12.87
2022-09-28T23:11:01.052Z,13.37
2022-09-28T23:13:28.719Z,12.73
2022-09-28T23:15:57.036Z,13.07
2022-09-28T23:18:24.563Z,13.23
2022-09-28T23:20:59.222Z,13.60
2022-09-28T23:23:25.929Z,12.83
2022-09-28T23:25:52.853Z,13.87
2022-09-28T23:28:20.754Z,11.60
2022-09-28T23:30:47.350Z,13.27
2022-09-28T23:33:18.316Z,12.70
2022-09-28T23:35:45.019Z,13.13
2022-09-28T23:38:13.489Z,11.70
2022-09-28T23:40:40.979Z,12.17
2022-09-28T23:43:07.942Z,12.90
2022-09-28T23:45:34.330Z,13.47
2022-09-28T23:48:00.859Z,12.67
2022-09-28T23:50:27.633Z,14.50
2022-09-28T23:52:54.088Z,14.47
2022-09-28T23:55:20.627Z,14.40
2022-09-28T23:57:47.101Z,12.33
